Sainte-Julie, Canada
Current Conditions -  °F | °C
As of 3:00 AM on Sunday 26 Oct 2014 (Local Time) from CYHU Reporting Station
Scattered Clouds Scattered Clouds  
Wind Chill: 42°   Ceiling: Unl
Heat Index: 46°   Visibility: 9mi
Dew Point: 43°   Wind: 9mph
Humidity: 87%   Direction: 260°W
Pressure: 29.39"   Gusts: NA
Location:  45.58°N, 73.33°W
Report Text: CYHU 260700Z AUTO 26008KT 9SM FEW100 SCT120 08/06 A2939 RMK SLP953
Loading
Personal Weather Stations






























Interactive Weather Map
Tropical Storm Tracking
New forecast layout! Learn more

10-Day Weather Forecast

Advertisements
Track Severe Weather on mobile